Massena International Airport

Airport
ICAO code: 
KMSS
Summary
ICAO Region: 
NAM
Territory: 
Location: 
Massena, New York,
Coordinates: 
Aerial View: 
44° 56' 8.999" N, 74° 50' 44.002" W
Airport GND: 
Aircraft Ground De/Anti Icing
Airport WX: 
Cumulonimbus
Metar
Observation
KMSS 040653Z AUTO 36003KT 10SM SCT110 M07/M17 A3008 RMK AO2 SLP194 T10671167
Station
Massena, Massena International-Richards Field
Date/Time
2021-12-04 06:53:00
Wind direction
360°
Wind speed
03 kts
Lowest cloud amount
scattered clouds
Temperature
-6.7°C
Dew point
-16.7°C
Humidity
44%
Weather condition
n/a

Description

Massena International Airport, also known as Richards Field, is a public use airport located 4 km east of the central business district of Massena, a village in St. Lawrence County, New York.

Climatology

Humid Continental climate (Köppen climate classification Dfb) - Variable weather patterns and a large seasonal temperature variance. Summers are often warm and humid with frequent thunderstorms and winters can be very cold with frequent snowfall and persistent snow cover.

Runways

Designator Length Width Surface Rops
9/27 1219 30 ASP No/No
5/23 1523 30 ASP No/No
Airport map: 
Aerial View: 

SKYbrary Partners:

Safety knowledge contributed by: